createdAt,value
2023-01-18T06:18:07.170Z,89.98
2023-01-18T06:28:07.422Z,120.38
2023-01-18T06:38:07.335Z,115.20
2023-01-18T06:48:07.381Z,92.59
2023-01-18T06:58:07.298Z,95.30
2023-01-18T07:08:07.394Z,120.16
2023-01-18T07:18:07.485Z,90.68
2023-01-18T07:28:07.343Z,101.71
2023-01-18T07:38:07.283Z,107.82
2023-01-18T07:48:07.406Z,135.00
2023-01-18T07:58:07.495Z,157.61
2023-01-18T08:08:07.377Z,171.39
2023-01-18T08:18:07.320Z,178.70
2023-01-18T08:28:07.365Z,178.22
2023-01-18T08:38:07.540Z,145.84
2023-01-18T08:48:07.614Z,151.51
2023-01-18T08:58:07.620Z,174.41
2023-01-18T09:08:07.712Z,179.90
2023-01-18T09:18:07.709Z,179.73
2023-01-18T09:28:07.650Z,180.00
2023-01-18T09:38:07.684Z,179.80
2023-01-18T09:48:07.771Z,179.37
2023-01-18T09:58:07.654Z,176.57
2023-01-18T10:08:07.618Z,178.97
2023-01-18T10:18:07.661Z,179.40
2023-01-18T10:28:07.562Z,179.79
2023-01-18T10:38:07.672Z,177.94
2023-01-18T10:48:07.703Z,179.53
2023-01-18T10:58:07.531Z,180.00
2023-01-18T11:08:07.583Z,175.08
2023-01-18T11:18:07.682Z,179.92
2023-01-18T11:28:07.639Z,179.46
2023-01-18T11:38:07.672Z,179.82
2023-01-18T11:48:07.753Z,180.00
2023-01-18T11:58:07.737Z,180.00
2023-01-18T12:08:07.642Z,183.73
2023-01-18T12:18:13.401Z,179.65
2023-01-18T12:28:07.567Z,180.00
2023-01-18T12:38:07.590Z,178.88
2023-01-18T12:48:07.708Z,180.00
2023-01-18T12:58:07.657Z,179.14
2023-01-18T13:08:07.784Z,178.62
2023-01-18T13:18:07.672Z,179.81
2023-01-18T13:28:07.629Z,180.00
2023-01-18T13:38:07.681Z,180.00
2023-01-18T13:48:07.833Z,180.00
2023-01-18T13:58:07.822Z,179.25
2023-01-18T14:08:07.913Z,180.00
2023-01-18T14:18:07.865Z,179.50
2023-01-18T14:28:07.840Z,180.00
2023-01-18T14:38:17.537Z,180.00
2023-01-18T14:48:07.781Z,178.97
2023-01-18T14:58:07.824Z,179.33
2023-01-18T15:08:07.884Z,180.00
2023-01-18T15:18:07.901Z,180.00
2023-01-18T15:28:22.812Z,179.01
2023-01-18T15:38:07.864Z,180.00
2023-01-18T15:48:07.923Z,180.00
2023-01-18T15:58:07.950Z,179.84
2023-01-18T16:08:15.766Z,170.95
2023-01-18T16:18:08.046Z,158.32
2023-01-18T16:28:07.879Z,136.19
2023-01-18T16:38:07.786Z,137.61
2023-01-18T16:48:07.808Z,155.54
2023-01-18T16:58:07.956Z,138.19
2023-01-18T17:08:07.805Z,172.55
2023-01-18T17:18:07.852Z,178.86
2023-01-18T17:28:07.900Z,178.91
2023-01-18T17:38:17.305Z,163.28
2023-01-18T17:48:07.952Z,177.12
2023-01-18T17:58:07.875Z,175.02
2023-01-18T18:08:07.869Z,179.08
2023-01-18T18:18:21.932Z,179.42
2023-01-18T18:28:07.870Z,177.72
2023-01-18T18:38:07.834Z,168.22
2023-01-18T18:48:07.932Z,180.00
2023-01-18T18:58:07.979Z,178.80
2023-01-18T19:08:07.832Z,179.42
2023-01-18T19:18:07.912Z,179.89
